createdAt,value
2023-05-20T00:01:19.792Z,102470.00
2023-05-20T00:03:46.781Z,102479.00
2023-05-20T00:06:13.812Z,102471.00
2023-05-20T00:08:40.624Z,102470.00
2023-05-20T00:11:07.466Z,102467.00
2023-05-20T00:13:36.052Z,102466.00
2023-05-20T00:16:03.066Z,102470.00
2023-05-20T00:18:29.984Z,102475.00
2023-05-20T00:20:56.846Z,102467.00
2023-05-20T00:23:23.693Z,102471.00
2023-05-20T00:25:50.620Z,102457.00
2023-05-20T00:28:17.463Z,102453.00
2023-05-20T00:30:44.273Z,102474.00
2023-05-20T00:33:11.169Z,102465.00
2023-05-20T00:35:38.063Z,102456.00
2023-05-20T00:38:04.921Z,102467.00
2023-05-20T00:40:31.732Z,102465.00
2023-05-20T00:42:58.555Z,102468.00
2023-05-20T00:45:25.503Z,102462.00
2023-05-20T00:47:52.402Z,102469.00
2023-05-20T00:50:19.398Z,102475.00
2023-05-20T00:52:48.299Z,102466.00
2023-05-20T00:55:15.183Z,102468.00
2023-05-20T00:57:42.036Z,102468.00
2023-05-20T01:00:10.722Z,102468.00
2023-05-20T01:02:37.859Z,102466.00
2023-05-20T01:05:05.139Z,102457.00
2023-05-20T01:07:32.192Z,102467.00
2023-05-20T01:09:59.795Z,102461.00
2023-05-20T01:12:39.298Z,102452.00
2023-05-20T01:15:11.818Z,102454.00
2023-05-20T01:17:51.716Z,102463.00
2023-05-20T01:20:20.676Z,102451.00
2023-05-20T01:22:48.857Z,102452.00
2023-05-20T01:25:15.797Z,102441.00
2023-05-20T01:27:42.663Z,102444.00
2023-05-20T01:30:09.861Z,102452.00
2023-05-20T01:32:43.841Z,102451.00
2023-05-20T01:35:10.998Z,102441.00
2023-05-20T01:37:40.474Z,102449.00
2023-05-20T01:40:08.524Z,102438.00
2023-05-20T01:42:36.289Z,102447.00
2023-05-20T01:45:03.788Z,102450.00
2023-05-20T01:47:31.279Z,102449.00
2023-05-20T01:49:58.244Z,102435.00
2023-05-20T01:52:25.190Z,102438.00
2023-05-20T01:54:52.091Z,102442.00
2023-05-20T01:57:22.739Z,102438.00
2023-05-20T01:59:50.110Z,102427.00
2023-05-20T02:02:17.308Z,102423.00
2023-05-20T02:04:49.071Z,102436.00
2023-05-20T02:07:16.723Z,102422.00
2023-05-20T02:09:43.553Z,102431.00
2023-05-20T02:12:16.378Z,102419.00
2023-05-20T02:14:45.381Z,102414.00
2023-05-20T02:17:14.591Z,102413.00
2023-05-20T02:19:41.472Z,102424.00
2023-05-20T02:22:08.341Z,102414.00
2023-05-20T02:24:35.215Z,102419.00
2023-05-20T02:27:03.294Z,102415.00
2023-05-20T02:29:30.334Z,102431.00
2023-05-20T02:31:57.174Z,102419.00
2023-05-20T02:34:25.936Z,102427.00
2023-05-20T02:36:52.990Z,102411.00
2023-05-20T02:39:19.975Z,102420.00
2023-05-20T02:41:46.831Z,102425.00
2023-05-20T02:44:13.920Z,102430.00
2023-05-20T02:46:41.092Z,102433.00
2023-05-20T02:49:08.012Z,102436.00
2023-05-20T02:51:34.907Z,102441.00
2023-05-20T02:54:01.892Z,102429.00
2023-05-20T02:56:28.802Z,102439.00
2023-05-20T02:58:55.738Z,102431.00
2023-05-20T03:01:23.373Z,102432.00
2023-05-20T03:03:50.724Z,102428.00
2023-05-20T03:06:17.710Z,102425.00
2023-05-20T03:08:44.517Z,102437.00
2023-05-20T03:11:11.837Z,102430.00
2023-05-20T03:13:38.737Z,102439.00
2023-05-20T03:16:05.675Z,102440.00
2023-05-20T03:18:33.289Z,102442.00
2023-05-20T03:21:00.181Z,102442.00
2023-05-20T03:23:27.319Z,102438.00
2023-05-20T03:25:54.193Z,102438.00
2023-05-20T03:28:21.126Z,102442.00
2023-05-20T03:30:47.999Z,102447.00
2023-05-20T03:33:15.034Z,102440.00
2023-05-20T03:35:41.924Z,102434.00
2023-05-20T03:38:08.831Z,102449.00
2023-05-20T03:40:35.772Z,102448.00
2023-05-20T03:43:02.618Z,102445.00
2023-05-20T03:45:29.536Z,102444.00
2023-05-20T03:47:56.483Z,102450.00
2023-05-20T03:50:23.350Z,102451.00
2023-05-20T03:52:50.298Z,102444.00
2023-05-20T03:55:17.149Z,102445.00
2023-05-20T03:57:43.994Z,102436.00
2023-05-20T04:00:14.454Z,102442.00
2023-05-20T04:02:41.947Z,102427.00
2023-05-20T04:05:10.307Z,102443.00
2023-05-20T04:07:37.200Z,102444.00
2023-05-20T04:10:04.745Z,102434.00
2023-05-20T04:12:32.463Z,102447.00
2023-05-20T04:15:01.283Z,102435.00
2023-05-20T04:17:31.622Z,102430.00
2023-05-20T04:19:59.953Z,102442.00
2023-05-20T04:22:27.225Z,102426.00
2023-05-20T04:24:54.190Z,102438.00
2023-05-20T04:27:21.693Z,102422.00
2023-05-20T04:29:48.792Z,102431.00
2023-05-20T04:32:18.880Z,102423.00
2023-05-20T04:34:49.182Z,102429.00
2023-05-20T04:37:16.126Z,102416.00
2023-05-20T04:39:43.875Z,102415.00
2023-05-20T04:42:10.806Z,102423.00
2023-05-20T04:44:38.063Z,102414.00
2023-05-20T04:47:04.970Z,102406.00
2023-05-20T04:49:31.843Z,102409.00
2023-05-20T04:51:58.794Z,102403.00
2023-05-20T04:54:25.652Z,102418.00
2023-05-20T04:56:52.525Z,102417.00
2023-05-20T04:59:19.408Z,102414.00
2023-05-20T05:01:46.299Z,102408.00
2023-05-20T05:04:13.224Z,102407.00
2023-05-20T05:06:40.091Z,102406.00
2023-05-20T05:09:07.970Z,102406.00
2023-05-20T05:11:34.861Z,102412.00
2023-05-20T05:14:05.356Z,102412.00
2023-05-20T05:16:34.267Z,102411.00
2023-05-20T05:19:01.166Z,102415.00
2023-05-20T05:21:28.005Z,102423.00
2023-05-20T05:24:18.374Z,102421.00
2023-05-20T05:26:45.408Z,102426.00
2023-05-20T05:29:12.242Z,102440.00
2023-05-20T05:31:39.077Z,102442.00
2023-05-20T05:34:05.904Z,102434.00
2023-05-20T05:36:34.003Z,102441.00
2023-05-20T05:39:00.955Z,102447.00
2023-05-20T05:41:27.820Z,102444.00
2023-05-20T05:43:54.685Z,102441.00
2023-05-20T05:46:21.529Z,102444.00
2023-05-20T05:48:50.539Z,102447.00
2023-05-20T05:51:17.774Z,102439.00
2023-05-20T05:54:00.052Z,102448.00
2023-05-20T05:56:26.895Z,102438.00
2023-05-20T05:58:57.228Z,102447.00
2023-05-20T06:01:24.117Z,102448.00
2023-05-20T12:02:31.120Z,102299.00
2023-05-20T12:04:58.600Z,102298.00
2023-05-20T12:07:26.721Z,102289.00
2023-05-20T12:09:53.607Z,102308.00
2023-05-20T12:12:20.521Z,102297.00
2023-05-20T12:14:47.419Z,102293.00
2023-05-20T12:17:14.234Z,102293.00
2023-05-20T12:19:42.013Z,102299.00
2023-05-20T12:22:09.510Z,102301.00
2023-05-20T12:24:36.374Z,102286.00
2023-05-20T12:27:06.410Z,102298.00
2023-05-20T12:29:33.749Z,102296.00
2023-05-20T12:32:01.088Z,102289.00
2023-05-20T12:34:28.115Z,102291.00
2023-05-20T12:36:54.961Z,102289.00
2023-05-20T12:39:21.869Z,102282.00
2023-05-20T12:41:48.761Z,102288.00
2023-05-20T12:44:15.611Z,102283.00
2023-05-20T12:46:42.527Z,102283.00
2023-05-20T12:49:09.416Z,102285.00
2023-05-20T12:51:36.334Z,102325.00
2023-05-20T12:54:03.157Z,102298.00
2023-05-20T12:56:30.562Z,102307.00
2023-05-20T12:58:58.014Z,102301.00
2023-05-20T13:01:24.999Z,102314.00
2023-05-20T13:03:53.364Z,102291.00
2023-05-20T13:06:20.344Z,102302.00
2023-05-20T13:08:47.177Z,102289.00
2023-05-20T13:11:14.076Z,102298.00
2023-05-20T13:13:41.586Z,102303.00
2023-05-20T13:16:08.508Z,102290.00
2023-05-20T13:18:35.351Z,102293.00
2023-05-20T13:21:02.160Z,102290.00
2023-05-20T13:23:29.004Z,102278.00
2023-05-20T13:25:56.084Z,102277.00
2023-05-20T13:28:23.020Z,102261.00
2023-05-20T13:30:50.005Z,102271.00
2023-05-20T13:33:16.846Z,102280.00
2023-05-20T13:35:43.719Z,102261.00
2023-05-20T13:38:10.806Z,102283.00
2023-05-20T13:40:37.724Z,102279.00
2023-05-20T13:43:04.620Z,102255.00
2023-05-20T13:45:31.438Z,102267.00
2023-05-20T13:47:58.224Z,102269.00
2023-05-20T13:50:26.303Z,102257.00
2023-05-20T13:52:53.156Z,102252.00
2023-05-20T13:55:20.010Z,102273.00
2023-05-20T13:57:46.856Z,102272.00
2023-05-20T14:00:14.658Z,102257.00
2023-05-20T14:02:41.949Z,102244.00
2023-05-20T14:05:09.048Z,102256.00
2023-05-20T14:07:36.013Z,102260.00
2023-05-20T14:10:02.881Z,102248.00
2023-05-20T14:12:29.732Z,102261.00
2023-05-20T14:14:56.698Z,102252.00
2023-05-20T14:17:23.581Z,102244.00
2023-05-20T14:19:50.410Z,102231.00
2023-05-20T14:22:17.307Z,102224.00
2023-05-20T14:24:44.441Z,102233.00
2023-05-20T14:27:11.536Z,102245.00
2023-05-20T14:29:38.325Z,102258.00
2023-05-20T14:32:05.652Z,102234.00
2023-05-20T14:34:35.128Z,102230.00
2023-05-20T14:37:07.881Z,102253.00
2023-05-20T14:39:34.683Z,102240.00
2023-05-20T14:42:01.597Z,102231.00
2023-05-20T14:44:29.024Z,102234.00
2023-05-20T14:46:56.055Z,102226.00
2023-05-20T14:49:23.041Z,102226.00
2023-05-20T14:51:49.914Z,102233.00
2023-05-20T14:54:19.056Z,102223.00
2023-05-20T14:56:47.105Z,102220.00
2023-05-20T14:59:14.957Z,102223.00
2023-05-20T15:01:41.739Z,102207.00
2023-05-20T15:04:08.613Z,102219.00
2023-05-20T15:06:36.455Z,102222.00
2023-05-20T15:09:03.400Z,102206.00
2023-05-20T15:11:30.338Z,102196.00
2023-05-20T15:13:57.180Z,102201.00
2023-05-20T15:16:24.492Z,102185.00
2023-05-20T15:18:52.184Z,102191.00
2023-05-20T15:21:19.080Z,102183.00
2023-05-20T15:23:46.109Z,102191.00
2023-05-20T15:26:13.009Z,102210.00
2023-05-20T15:28:40.912Z,102204.00
2023-05-20T15:31:07.780Z,102215.00
2023-05-20T15:33:34.888Z,102195.00
2023-05-20T15:36:01.843Z,102191.00
2023-05-20T15:38:28.710Z,102195.00
2023-05-20T15:40:56.221Z,102165.00
2023-05-20T15:43:22.995Z,102175.00
2023-05-20T15:45:49.865Z,102164.00
2023-05-20T15:48:17.266Z,102167.00
2023-05-20T15:50:44.176Z,102166.00
2023-05-20T15:53:11.225Z,102153.00
2023-05-20T15:55:39.455Z,102161.00
2023-05-20T15:58:06.441Z,102151.00
2023-05-20T16:00:33.413Z,102157.00
2023-05-20T16:03:00.663Z,102155.00
2023-05-20T16:05:27.608Z,102141.00
2023-05-20T16:07:55.174Z,102133.00
2023-05-20T16:10:23.972Z,102136.00
2023-05-20T16:12:52.369Z,102142.00
2023-05-20T16:15:19.193Z,102135.00
2023-05-20T16:17:46.062Z,102141.00
2023-05-20T16:20:12.910Z,102128.00
2023-05-20T16:22:39.984Z,102118.00
2023-05-20T16:25:07.033Z,102115.00
2023-05-20T16:27:33.864Z,102121.00
2023-05-20T16:30:00.959Z,102118.00
2023-05-20T16:32:27.905Z,102108.00
2023-05-20T16:34:54.809Z,102115.00
2023-05-20T16:37:21.643Z,102105.00
2023-05-20T16:39:48.466Z,102099.00
2023-05-20T16:42:17.253Z,102103.00
2023-05-20T16:44:44.048Z,102085.00
2023-05-20T16:47:10.891Z,102094.00
2023-05-20T16:49:37.687Z,102081.00
2023-05-20T16:52:04.831Z,102080.00
2023-05-20T16:54:32.591Z,102081.00
2023-05-20T16:56:59.430Z,102087.00
2023-05-20T16:59:28.874Z,102076.00
2023-05-20T17:01:55.900Z,102081.00
2023-05-20T17:04:22.961Z,102061.00
2023-05-20T17:06:50.306Z,102090.00
2023-05-20T17:09:17.160Z,102087.00
2023-05-20T17:11:44.590Z,102073.00
2023-05-20T17:14:11.452Z,102080.00
2023-05-20T17:16:38.511Z,102074.00
2023-05-20T17:19:05.387Z,102081.00
2023-05-20T17:21:32.356Z,102078.00
2023-05-20T17:23:59.158Z,102061.00
2023-05-20T17:26:26.117Z,102077.00
2023-05-20T17:28:52.955Z,102073.00
2023-05-20T17:31:20.343Z,102065.00
2023-05-20T17:33:47.188Z,102058.00
2023-05-20T17:36:14.568Z,102064.00
2023-05-20T17:38:41.426Z,102055.00
2023-05-20T17:41:08.250Z,102061.00
2023-05-20T17:43:35.095Z,102064.00
2023-05-20T17:46:01.919Z,102060.00
2023-05-20T17:48:28.823Z,102055.00
2023-05-20T17:50:58.209Z,102058.00
2023-05-20T17:53:25.063Z,102050.00
2023-05-20T17:55:51.925Z,102053.00
2023-05-20T17:58:25.852Z,102059.00
2023-05-20T18:00:56.545Z,102053.00
2023-05-20T18:03:31.104Z,102062.00
2023-05-20T18:06:18.639Z,102058.00
2023-05-20T18:08:45.708Z,102051.00
2023-05-20T18:11:22.207Z,102055.00
2023-05-20T18:13:49.982Z,102051.00
2023-05-20T18:16:17.731Z,102048.00
2023-05-20T18:18:45.428Z,102052.00
2023-05-20T18:21:12.522Z,102043.00
2023-05-20T18:23:39.502Z,102045.00
2023-05-20T18:26:10.455Z,102058.00
2023-05-20T18:28:47.058Z,102040.00
2023-05-20T18:31:14.371Z,102041.00
2023-05-20T18:33:44.081Z,102050.00
2023-05-20T18:36:13.024Z,102040.00
2023-05-20T18:38:41.876Z,102046.00
2023-05-20T18:41:09.363Z,102047.00
2023-05-20T18:43:37.806Z,102055.00
2023-05-20T18:46:05.630Z,102057.00
2023-05-20T18:49:05.005Z,102049.00
2023-05-20T18:51:37.806Z,102057.00
2023-05-20T18:54:10.545Z,102054.00
2023-05-20T18:56:37.814Z,102047.00
2023-05-20T18:59:04.757Z,102045.00
2023-05-20T19:01:36.599Z,102039.00
2023-05-20T19:04:03.824Z,102043.00
2023-05-20T19:06:31.842Z,102042.00
2023-05-20T19:08:58.785Z,102027.00
2023-05-20T19:11:26.107Z,102033.00
2023-05-20T19:13:53.130Z,102039.00
2023-05-20T19:16:20.633Z,102043.00
2023-05-20T19:18:47.645Z,102039.00
2023-05-20T19:21:14.635Z,102037.00
2023-05-20T19:23:44.283Z,102039.00
2023-05-20T19:26:11.370Z,102034.00
2023-05-20T19:28:38.561Z,102034.00
2023-05-20T19:31:08.374Z,102040.00
2023-05-20T19:33:35.572Z,102030.00
2023-05-20T19:36:03.009Z,102027.00
2023-05-20T19:38:30.161Z,102015.00
2023-05-20T19:40:57.220Z,102020.00
2023-05-20T19:43:34.072Z,102007.00
2023-05-20T19:46:01.954Z,102007.00
2023-05-20T19:48:59.573Z,101991.00
2023-05-20T19:51:25.606Z,102004.00
2023-05-20T19:53:53.121Z,102000.00
2023-05-20T19:56:24.096Z,101999.00
2023-05-20T19:58:51.785Z,101994.00
2023-05-20T20:01:18.960Z,101997.00
2023-05-20T20:03:46.257Z,102001.00
2023-05-20T20:06:13.414Z,102010.00
2023-05-20T20:08:40.269Z,102004.00
2023-05-20T20:11:07.672Z,102001.00
2023-05-20T20:13:34.945Z,101995.00
2023-05-20T20:16:05.207Z,102000.00
2023-05-20T20:18:32.472Z,102001.00
2023-05-20T20:21:05.736Z,101995.00
2023-05-20T20:23:32.854Z,101995.00
2023-05-20T20:25:59.726Z,102005.00
2023-05-20T20:28:26.656Z,102009.00
2023-05-20T20:30:53.682Z,102008.00
2023-05-20T20:33:20.488Z,102008.00
2023-05-20T20:35:48.103Z,102018.00
2023-05-20T20:38:15.021Z,102006.00
2023-05-20T20:40:42.631Z,102012.00
2023-05-20T20:43:11.051Z,102007.00
2023-05-20T20:45:38.034Z,102001.00
2023-05-20T20:48:07.893Z,102010.00
2023-05-20T20:50:35.787Z,102006.00
2023-05-20T20:53:03.017Z,102006.00
2023-05-20T20:55:30.658Z,102005.00
2023-05-20T20:57:58.073Z,101999.00
2023-05-20T21:00:26.424Z,102001.00
2023-05-20T21:02:53.237Z,101993.00
2023-05-20T21:05:21.556Z,101999.00
2023-05-20T21:07:52.445Z,101992.00
2023-05-20T21:10:19.338Z,102001.00
2023-05-20T21:12:46.272Z,102007.00
2023-05-20T21:15:14.841Z,101999.00
2023-05-20T21:17:41.751Z,102000.00
2023-05-20T21:20:09.036Z,102005.00
2023-05-20T21:22:35.881Z,102012.00
2023-05-20T21:25:02.721Z,101996.00
2023-05-20T21:27:29.555Z,102010.00
2023-05-20T21:29:56.412Z,102010.00
2023-05-20T21:32:28.509Z,102004.00
2023-05-20T21:34:56.859Z,102000.00
2023-05-20T21:37:25.108Z,102002.00
2023-05-20T21:39:51.975Z,102001.00
2023-05-20T21:42:18.756Z,101999.00
2023-05-20T21:44:45.588Z,101994.00
2023-05-20T21:47:12.386Z,102000.00
2023-05-20T21:49:39.219Z,102000.00
2023-05-20T21:52:06.323Z,102002.00
2023-05-20T21:54:33.113Z,101990.00
2023-05-20T21:56:59.924Z,102003.00
2023-05-20T21:59:26.773Z,101994.00
2023-05-20T22:01:54.303Z,101993.00
2023-05-20T22:04:21.592Z,101991.00
2023-05-20T22:06:50.617Z,101974.00
2023-05-20T22:09:17.521Z,101978.00
2023-05-20T22:11:45.184Z,101985.00
2023-05-20T22:14:16.020Z,101976.00
2023-05-20T22:16:46.477Z,101976.00
2023-05-20T22:19:17.257Z,101972.00
2023-05-20T22:21:50.281Z,101976.00
2023-05-20T22:24:18.273Z,101977.00
2023-05-20T22:26:45.236Z,101979.00
2023-05-20T22:29:12.076Z,101965.00
2023-05-20T22:31:39.003Z,101949.00
2023-05-20T22:34:05.851Z,101951.00
2023-05-20T22:36:36.383Z,101945.00
2023-05-20T22:39:04.482Z,101926.00
2023-05-20T22:41:31.408Z,101923.00
2023-05-20T22:43:58.538Z,101929.00
2023-05-20T22:46:25.795Z,101924.00
2023-05-20T22:48:53.087Z,101922.00
2023-05-20T22:51:24.594Z,101924.00
2023-05-20T22:53:51.512Z,101922.00
2023-05-20T22:56:18.774Z,101924.00
2023-05-20T22:58:45.875Z,101921.00
2023-05-20T23:01:12.906Z,101914.00
2023-05-20T23:03:39.986Z,101915.00
2023-05-20T23:06:06.851Z,101910.00
2023-05-20T23:08:33.710Z,101910.00
2023-05-20T23:11:00.555Z,101900.00
2023-05-20T23:13:28.018Z,101907.00
2023-05-20T23:15:54.868Z,101917.00
2023-05-20T23:18:21.774Z,101909.00
2023-05-20T23:20:48.708Z,101913.00
2023-05-20T23:23:15.849Z,101911.00
2023-05-20T23:25:45.075Z,101908.00
2023-05-20T23:28:12.601Z,101899.00
2023-05-20T23:30:39.387Z,101887.00
2023-05-20T23:33:06.566Z,101890.00
2023-05-20T23:35:33.906Z,101883.00
2023-05-20T23:38:00.995Z,101883.00
2023-05-20T23:40:27.964Z,101880.00
2023-05-20T23:42:54.750Z,101881.00
2023-05-20T23:45:21.614Z,101873.00
2023-05-20T23:47:48.486Z,101872.00
2023-05-20T23:50:15.680Z,101861.00
2023-05-20T23:52:42.493Z,101860.00
2023-05-20T23:55:10.289Z,101860.00
2023-05-20T23:57:37.373Z,101865.00
